sensor_id;sensor_type;location;lat;lon;timestamp;P1;durP1;ratioP1;P2;durP2;ratioP2
16822;SDS011;8528;49.976;11.858;2023-11-19T00:00:08;5.77;;;4.47;;
16822;SDS011;8528;49.976;11.858;2023-11-19T00:02:40;6.13;;;4.67;;
16822;SDS011;8528;49.976;11.858;2023-11-19T00:05:08;5.97;;;4.83;;
16822;SDS011;8528;49.976;11.858;2023-11-19T00:07:38;6.13;;;4.40;;
16822;SDS011;8528;49.976;11.858;2023-11-19T00:10:09;6.23;;;4.57;;
16822;SDS011;8528;49.976;11.858;2023-11-19T00:12:58;6.17;;;4.77;;
16822;SDS011;8528;49.976;11.858;2023-11-19T00:15:25;6.63;;;5.00;;
16822;SDS011;8528;49.976;11.858;2023-11-19T00:17:52;5.50;;;4.53;;
16822;SDS011;8528;49.976;11.858;2023-11-19T00:20:20;5.87;;;4.63;;
16822;SDS011;8528;49.976;11.858;2023-11-19T00:22:49;6.27;;;5.03;;
16822;SDS011;8528;49.976;11.858;2023-11-19T00:25:18;5.70;;;4.40;;
16822;SDS011;8528;49.976;11.858;2023-11-19T00:27:47;5.77;;;4.33;;
16822;SDS011;8528;49.976;11.858;2023-11-19T00:30:14;5.07;;;4.27;;
16822;SDS011;8528;49.976;11.858;2023-11-19T00:32:41;5.07;;;4.20;;
16822;SDS011;8528;49.976;11.858;2023-11-19T00:35:09;5.80;;;4.67;;
16822;SDS011;8528;49.976;11.858;2023-11-19T00:37:42;5.33;;;4.50;;
16822;SDS011;8528;49.976;11.858;2023-11-19T00:40:09;4.87;;;4.13;;
16822;SDS011;8528;49.976;11.858;2023-11-19T00:42:37;6.87;;;4.00;;
16822;SDS011;8528;49.976;11.858;2023-11-19T00:45:05;5.37;;;4.53;;
16822;SDS011;8528;49.976;11.858;2023-11-19T00:47:36;5.40;;;4.20;;
16822;SDS011;8528;49.976;11.858;2023-11-19T00:50:03;5.13;;;3.63;;
16822;SDS011;8528;49.976;11.858;2023-11-19T00:52:30;5.00;;;3.80;;
16822;SDS011;8528;49.976;11.858;2023-11-19T00:54:56;4.80;;;3.90;;
16822;SDS011;8528;49.976;11.858;2023-11-19T00:57:24;4.77;;;3.90;;
16822;SDS011;8528;49.976;11.858;2023-11-19T00:59:52;4.20;;;3.10;;
16822;SDS011;8528;49.976;11.858;2023-11-19T01:02:19;4.67;;;3.60;;
16822;SDS011;8528;49.976;11.858;2023-11-19T01:04:47;3.80;;;3.13;;
16822;SDS011;8528;49.976;11.858;2023-11-19T01:07:14;4.17;;;3.00;;
16822;SDS011;8528;49.976;11.858;2023-11-19T01:09:41;3.90;;;3.20;;
16822;SDS011;8528;49.976;11.858;2023-11-19T01:12:09;3.50;;;2.80;;
16822;SDS011;8528;49.976;11.858;2023-11-19T01:14:36;3.73;;;2.90;;
16822;SDS011;8528;49.976;11.858;2023-11-19T01:17:03;3.73;;;3.33;;
16822;SDS011;8528;49.976;11.858;2023-11-19T01:19:32;3.77;;;3.17;;
16822;SDS011;8528;49.976;11.858;2023-11-19T01:21:58;5.53;;;3.67;;
16822;SDS011;8528;49.976;11.858;2023-11-19T01:24:25;4.60;;;3.57;;
16822;SDS011;8528;49.976;11.858;2023-11-19T01:26:54;5.27;;;3.37;;
16822;SDS011;8528;49.976;11.858;2023-11-19T01:29:22;3.97;;;3.20;;
16822;SDS011;8528;49.976;11.858;2023-11-19T01:31:49;3.80;;;3.03;;
16822;SDS011;8528;49.976;11.858;2023-11-19T01:34:17;4.00;;;3.07;;
16822;SDS011;8528;49.976;11.858;2023-11-19T01:36:44;4.27;;;3.17;;
16822;SDS011;8528;49.976;11.858;2023-11-19T01:39:12;4.40;;;3.10;;
16822;SDS011;8528;49.976;11.858;2023-11-19T01:41:42;3.60;;;2.93;;
16822;SDS011;8528;49.976;11.858;2023-11-19T01:44:10;4.17;;;3.10;;
16822;SDS011;8528;49.976;11.858;2023-11-19T01:46:40;2.90;;;2.60;;
16822;SDS011;8528;49.976;11.858;2023-11-19T01:49:08;2.63;;;2.37;;
16822;SDS011;8528;49.976;11.858;2023-11-19T01:51:35;3.10;;;2.43;;
16822;SDS011;8528;49.976;11.858;2023-11-19T01:54:02;3.17;;;2.80;;
16822;SDS011;8528;49.976;11.858;2023-11-19T01:56:29;3.00;;;2.30;;
16822;SDS011;8528;49.976;11.858;2023-11-19T01:58:57;2.50;;;2.20;;
16822;SDS011;8528;49.976;11.858;2023-11-19T02:01:25;3.10;;;2.33;;
16822;SDS011;8528;49.976;11.858;2023-11-19T02:03:53;2.40;;;2.10;;
16822;SDS011;8528;49.976;11.858;2023-11-19T02:06:20;2.27;;;2.07;;
16822;SDS011;8528;49.976;11.858;2023-11-19T02:08:47;2.50;;;2.07;;
16822;SDS011;8528;49.976;11.858;2023-11-19T02:11:16;2.37;;;2.00;;
16822;SDS011;8528;49.976;11.858;2023-11-19T02:13:42;2.00;;;1.70;;
16822;SDS011;8528;49.976;11.858;2023-11-19T02:16:10;2.03;;;1.83;;
16822;SDS011;8528;49.976;11.858;2023-11-19T02:18:37;2.33;;;1.90;;
16822;SDS011;8528;49.976;11.858;2023-11-19T02:21:04;2.00;;;1.80;;
16822;SDS011;8528;49.976;11.858;2023-11-19T02:23:32;1.87;;;1.67;;
16822;SDS011;8528;49.976;11.858;2023-11-19T02:26:02;1.67;;;1.53;;
16822;SDS011;8528;49.976;11.858;2023-11-19T02:28:36;1.87;;;1.77;;
16822;SDS011;8528;49.976;11.858;2023-11-19T02:31:03;1.70;;;1.60;;
16822;SDS011;8528;49.976;11.858;2023-11-19T02:33:37;1.70;;;1.60;;
16822;SDS011;8528;49.976;11.858;2023-11-19T02:36:05;1.80;;;1.70;;
16822;SDS011;8528;49.976;11.858;2023-11-19T02:38:34;1.60;;;1.50;;
16822;SDS011;8528;49.976;11.858;2023-11-19T02:41:03;1.57;;;1.33;;
16822;SDS011;8528;49.976;11.858;2023-11-19T02:43:34;1.50;;;1.40;;
16822;SDS011;8528;49.976;11.858;2023-11-19T02:46:05;2.13;;;1.40;;
16822;SDS011;8528;49.976;11.858;2023-11-19T02:48:37;1.90;;;1.70;;
16822;SDS011;8528;49.976;11.858;2023-11-19T02:51:05;2.23;;;1.80;;
16822;SDS011;8528;49.976;11.858;2023-11-19T02:53:36;1.40;;;1.30;;
16822;SDS011;8528;49.976;11.858;2023-11-19T02:56:07;1.60;;;1.40;;
16822;SDS011;8528;49.976;11.858;2023-11-19T02:58:46;1.70;;;1.40;;
16822;SDS011;8528;49.976;11.858;2023-11-19T03:01:14;1.63;;;1.40;;
16822;SDS011;8528;49.976;11.858;2023-11-19T03:03:50;1.40;;;1.30;;
16822;SDS011;8528;49.976;11.858;2023-11-19T03:06:24;1.40;;;1.30;;
16822;SDS011;8528;49.976;11.858;2023-11-19T03:08:51;2.63;;;1.10;;
16822;SDS011;8528;49.976;11.858;2023-11-19T03:11:18;1.20;;;1.10;;
16822;SDS011;8528;49.976;11.858;2023-11-19T03:13:45;0.87;;;0.87;;
16822;SDS011;8528;49.976;11.858;2023-11-19T03:16:13;0.90;;;0.90;;
16822;SDS011;8528;49.976;11.858;2023-11-19T03:18:40;0.87;;;0.87;;
16822;SDS011;8528;49.976;11.858;2023-11-19T03:21:07;1.20;;;1.03;;
16822;SDS011;8528;49.976;11.858;2023-11-19T03:23:35;0.90;;;0.90;;
16822;SDS011;8528;49.976;11.858;2023-11-19T03:26:02;1.00;;;0.90;;
16822;SDS011;8528;49.976;11.858;2023-11-19T03:28:31;0.90;;;0.90;;
16822;SDS011;8528;49.976;11.858;2023-11-19T03:30:58;1.17;;;0.80;;
16822;SDS011;8528;49.976;11.858;2023-11-19T03:33:25;0.90;;;0.90;;
16822;SDS011;8528;49.976;11.858;2023-11-19T03:35:56;0.80;;;0.80;;
16822;SDS011;8528;49.976;11.858;2023-11-19T03:38:23;0.80;;;0.80;;
16822;SDS011;8528;49.976;11.858;2023-11-19T03:40:53;0.80;;;0.80;;
16822;SDS011;8528;49.976;11.858;2023-11-19T03:43:20;0.97;;;0.97;;
16822;SDS011;8528;49.976;11.858;2023-11-19T03:45:47;0.80;;;0.80;;
16822;SDS011;8528;49.976;11.858;2023-11-19T03:48:15;0.77;;;0.77;;
16822;SDS011;8528;49.976;11.858;2023-11-19T03:50:43;0.90;;;0.90;;
16822;SDS011;8528;49.976;11.858;2023-11-19T03:53:11;0.70;;;0.70;;
16822;SDS011;8528;49.976;11.858;2023-11-19T03:55:38;0.80;;;0.80;;
16822;SDS011;8528;49.976;11.858;2023-11-19T03:58:05;0.80;;;0.80;;
16822;SDS011;8528;49.976;11.858;2023-11-19T04:00:32;0.90;;;0.90;;
16822;SDS011;8528;49.976;11.858;2023-11-19T04:02:59;1.00;;;1.00;;
16822;SDS011;8528;49.976;11.858;2023-11-19T04:05:26;0.90;;;0.90;;
16822;SDS011;8528;49.976;11.858;2023-11-19T04:07:53;1.20;;;1.10;;
16822;SDS011;8528;49.976;11.858;2023-11-19T04:10:19;1.20;;;1.10;;
16822;SDS011;8528;49.976;11.858;2023-11-19T04:12:49;1.30;;;1.20;;
16822;SDS011;8528;49.976;11.858;2023-11-19T04:15:16;1.40;;;1.30;;
16822;SDS011;8528;49.976;11.858;2023-11-19T04:17:43;1.40;;;1.30;;
16822;SDS011;8528;49.976;11.858;2023-11-19T04:20:11;1.80;;;1.60;;
16822;SDS011;8528;49.976;11.858;2023-11-19T04:22:41;1.40;;;1.30;;
16822;SDS011;8528;49.976;11.858;2023-11-19T04:25:08;1.90;;;1.70;;
16822;SDS011;8528;49.976;11.858;2023-11-19T04:27:36;2.03;;;1.70;;
16822;SDS011;8528;49.976;11.858;2023-11-19T04:30:03;2.50;;;2.07;;
16822;SDS011;8528;49.976;11.858;2023-11-19T04:32:31;1.87;;;1.57;;
16822;SDS011;8528;49.976;11.858;2023-11-19T04:34:58;2.33;;;2.00;;
16822;SDS011;8528;49.976;11.858;2023-11-19T04:37:25;2.57;;;2.13;;
16822;SDS011;8528;49.976;11.858;2023-11-19T04:39:52;2.30;;;2.10;;
16822;SDS011;8528;49.976;11.858;2023-11-19T04:42:21;2.20;;;2.00;;
16822;SDS011;8528;49.976;11.858;2023-11-19T04:44:49;2.70;;;2.00;;
16822;SDS011;8528;49.976;11.858;2023-11-19T04:47:16;2.97;;;2.33;;
16822;SDS011;8528;49.976;11.858;2023-11-19T04:49:43;2.60;;;1.93;;
16822;SDS011;8528;49.976;11.858;2023-11-19T04:52:10;3.17;;;2.30;;
16822;SDS011;8528;49.976;11.858;2023-11-19T04:54:42;2.97;;;2.50;;
16822;SDS011;8528;49.976;11.858;2023-11-19T04:57:12;2.87;;;2.17;;
16822;SDS011;8528;49.976;11.858;2023-11-19T04:59:39;3.43;;;2.77;;
16822;SDS011;8528;49.976;11.858;2023-11-19T05:02:07;3.10;;;2.60;;
16822;SDS011;8528;49.976;11.858;2023-11-19T05:04:42;3.73;;;2.70;;
16822;SDS011;8528;49.976;11.858;2023-11-19T05:07:10;3.03;;;2.50;;
16822;SDS011;8528;49.976;11.858;2023-11-19T05:09:37;3.33;;;2.67;;
16822;SDS011;8528;49.976;11.858;2023-11-19T05:12:04;3.70;;;2.90;;
16822;SDS011;8528;49.976;11.858;2023-11-19T05:14:31;2.30;;;2.10;;
16822;SDS011;8528;49.976;11.858;2023-11-19T05:16:58;3.97;;;2.60;;
16822;SDS011;8528;49.976;11.858;2023-11-19T05:19:25;2.47;;;2.20;;
16822;SDS011;8528;49.976;11.858;2023-11-19T05:21:51;2.30;;;2.03;;
16822;SDS011;8528;49.976;11.858;2023-11-19T05:24:18;1.23;;;1.10;;
16822;SDS011;8528;49.976;11.858;2023-11-19T05:26:45;1.40;;;1.30;;
16822;SDS011;8528;49.976;11.858;2023-11-19T05:29:13;2.80;;;2.10;;
16822;SDS011;8528;49.976;11.858;2023-11-19T05:31:39;2.93;;;1.67;;
16822;SDS011;8528;49.976;11.858;2023-11-19T05:34:10;1.57;;;1.47;;
16822;SDS011;8528;49.976;11.858;2023-11-19T05:36:36;1.40;;;1.20;;
16822;SDS011;8528;49.976;11.858;2023-11-19T05:39:03;0.83;;;0.83;;
16822;SDS011;8528;49.976;11.858;2023-11-19T05:41:31;0.97;;;0.90;;
16822;SDS011;8528;49.976;11.858;2023-11-19T05:43:58;0.97;;;0.97;;
16822;SDS011;8528;49.976;11.858;2023-11-19T05:46:24;1.27;;;1.17;;
16822;SDS011;8528;49.976;11.858;2023-11-19T05:48:53;1.23;;;1.13;;
16822;SDS011;8528;49.976;11.858;2023-11-19T05:51:20;1.03;;;0.93;;
16822;SDS011;8528;49.976;11.858;2023-11-19T05:53:47;1.20;;;1.10;;
16822;SDS011;8528;49.976;11.858;2023-11-19T05:56:16;1.00;;;1.00;;
16822;SDS011;8528;49.976;11.858;2023-11-19T05:58:47;1.30;;;1.20;;
16822;SDS011;8528;49.976;11.858;2023-11-19T06:01:15;1.00;;;1.00;;
16822;SDS011;8528;49.976;11.858;2023-11-19T06:03:43;1.23;;;1.13;;
16822;SDS011;8528;49.976;11.858;2023-11-19T06:06:10;1.27;;;1.17;;
16822;SDS011;8528;49.976;11.858;2023-11-19T06:08:38;1.40;;;1.30;;
16822;SDS011;8528;49.976;11.858;2023-11-19T06:11:05;1.30;;;1.20;;
16822;SDS011;8528;49.976;11.858;2023-11-19T06:13:32;1.20;;;1.10;;
16822;SDS011;8528;49.976;11.858;2023-11-19T06:15:58;1.30;;;1.20;;
16822;SDS011;8528;49.976;11.858;2023-11-19T06:18:26;2.00;;;1.80;;
16822;SDS011;8528;49.976;11.858;2023-11-19T06:20:53;1.40;;;1.30;;
16822;SDS011;8528;49.976;11.858;2023-11-19T06:23:20;2.27;;;1.30;;
16822;SDS011;8528;49.976;11.858;2023-11-19T06:25:48;1.20;;;1.10;;
16822;SDS011;8528;49.976;11.858;2023-11-19T06:28:14;1.30;;;1.20;;
16822;SDS011;8528;49.976;11.858;2023-11-19T06:30:41;1.20;;;1.10;;
16822;SDS011;8528;49.976;11.858;2023-11-19T06:33:12;1.10;;;1.00;;
16822;SDS011;8528;49.976;11.858;2023-11-19T06:35:39;1.20;;;1.10;;
16822;SDS011;8528;49.976;11.858;2023-11-19T06:38:06;1.33;;;1.23;;
16822;SDS011;8528;49.976;11.858;2023-11-19T06:40:33;1.00;;;1.00;;
16822;SDS011;8528;49.976;11.858;2023-11-19T06:43:04;0.90;;;0.90;;
16822;SDS011;8528;49.976;11.858;2023-11-19T06:45:31;1.17;;;0.90;;
16822;SDS011;8528;49.976;11.858;2023-11-19T06:48:00;1.17;;;1.07;;
16822;SDS011;8528;49.976;11.858;2023-11-19T06:50:28;1.00;;;0.90;;
16822;SDS011;8528;49.976;11.858;2023-11-19T06:52:54;1.17;;;1.07;;
16822;SDS011;8528;49.976;11.858;2023-11-19T06:55:21;1.20;;;1.10;;
16822;SDS011;8528;49.976;11.858;2023-11-19T06:57:49;1.10;;;1.00;;
16822;SDS011;8528;49.976;11.858;2023-11-19T07:00:15;0.80;;;0.80;;
16822;SDS011;8528;49.976;11.858;2023-11-19T07:02:42;1.40;;;0.90;;
16822;SDS011;8528;49.976;11.858;2023-11-19T07:05:11;1.40;;;1.20;;
16822;SDS011;8528;49.976;11.858;2023-11-19T07:07:39;1.97;;;1.10;;
16822;SDS011;8528;49.976;11.858;2023-11-19T07:10:06;1.50;;;1.40;;
16822;SDS011;8528;49.976;11.858;2023-11-19T07:12:36;2.50;;;1.77;;
16822;SDS011;8528;49.976;11.858;2023-11-19T07:15:03;2.13;;;1.67;;
16822;SDS011;8528;49.976;11.858;2023-11-19T07:17:31;1.70;;;1.60;;
16822;SDS011;8528;49.976;11.858;2023-11-19T07:19:58;3.53;;;2.10;;
16822;SDS011;8528;49.976;11.858;2023-11-19T07:22:26;2.33;;;2.13;;
16822;SDS011;8528;49.976;11.858;2023-11-19T07:24:55;3.93;;;3.27;;
16822;SDS011;8528;49.976;11.858;2023-11-19T07:27:22;3.90;;;3.20;;
16822;SDS011;8528;49.976;11.858;2023-11-19T07:29:50;3.23;;;2.63;;
16822;SDS011;8528;49.976;11.858;2023-11-19T07:32:17;3.97;;;2.73;;
16822;SDS011;8528;49.976;11.858;2023-11-19T07:34:44;3.83;;;2.90;;
16822;SDS011;8528;49.976;11.858;2023-11-19T07:37:11;5.70;;;3.70;;
16822;SDS011;8528;49.976;11.858;2023-11-19T07:39:38;4.13;;;3.73;;
16822;SDS011;8528;49.976;11.858;2023-11-19T07:42:07;2.30;;;1.80;;
16822;SDS011;8528;49.976;11.858;2023-11-19T07:44:35;3.03;;;2.23;;
16822;SDS011;8528;49.976;11.858;2023-11-19T07:47:03;1.40;;;1.30;;
16822;SDS011;8528;49.976;11.858;2023-11-19T07:49:30;1.40;;;1.30;;
16822;SDS011;8528;49.976;11.858;2023-11-19T07:51:57;2.20;;;1.77;;
16822;SDS011;8528;49.976;11.858;2023-11-19T07:54:24;3.17;;;2.53;;
16822;SDS011;8528;49.976;11.858;2023-11-19T07:56:51;1.87;;;1.57;;
16822;SDS011;8528;49.976;11.858;2023-11-19T07:59:18;2.33;;;1.30;;
16822;SDS011;8528;49.976;11.858;2023-11-19T08:01:45;1.13;;;1.03;;
16822;SDS011;8528;49.976;11.858;2023-11-19T08:04:12;1.30;;;1.20;;
16822;SDS011;8528;49.976;11.858;2023-11-19T08:06:39;1.63;;;1.53;;
16822;SDS011;8528;49.976;11.858;2023-11-19T08:09:06;0.80;;;0.80;;
16822;SDS011;8528;49.976;11.858;2023-11-19T08:11:33;0.90;;;0.90;;
16822;SDS011;8528;49.976;11.858;2023-11-19T08:14:00;1.30;;;1.20;;
16822;SDS011;8528;49.976;11.858;2023-11-19T08:16:27;1.10;;;1.00;;
16822;SDS011;8528;49.976;11.858;2023-11-19T08:18:54;1.40;;;1.30;;
16822;SDS011;8528;49.976;11.858;2023-11-19T08:21:20;1.80;;;1.67;;
16822;SDS011;8528;49.976;11.858;2023-11-19T08:23:49;1.77;;;1.50;;
16822;SDS011;8528;49.976;11.858;2023-11-19T08:26:16;1.90;;;1.70;;
16822;SDS011;8528;49.976;11.858;2023-11-19T08:28:47;2.17;;;1.50;;
16822;SDS011;8528;49.976;11.858;2023-11-19T08:31:14;2.10;;;1.90;;
16822;SDS011;8528;49.976;11.858;2023-11-19T08:33:41;2.10;;;1.90;;
16822;SDS011;8528;49.976;11.858;2023-11-19T08:36:08;2.20;;;1.97;;
16822;SDS011;8528;49.976;11.858;2023-11-19T08:38:35;1.83;;;1.70;;
16822;SDS011;8528;49.976;11.858;2023-11-19T08:41:02;2.03;;;1.80;;
16822;SDS011;8528;49.976;11.858;2023-11-19T08:43:29;2.63;;;1.97;;
16822;SDS011;8528;49.976;11.858;2023-11-19T08:45:58;1.97;;;1.80;;
16822;SDS011;8528;49.976;11.858;2023-11-19T08:48:25;2.53;;;1.97;;
16822;SDS011;8528;49.976;11.858;2023-11-19T08:50:52;2.60;;;2.40;;
16822;SDS011;8528;49.976;11.858;2023-11-19T08:53:19;3.30;;;2.50;;
16822;SDS011;8528;49.976;11.858;2023-11-19T08:55:45;4.23;;;3.30;;
16822;SDS011;8528;49.976;11.858;2023-11-19T08:58:12;2.77;;;2.50;;
16822;SDS011;8528;49.976;11.858;2023-11-19T09:00:39;2.33;;;2.13;;
16822;SDS011;8528;49.976;11.858;2023-11-19T09:03:06;2.50;;;2.30;;
16822;SDS011;8528;49.976;11.858;2023-11-19T09:05:35;2.30;;;1.90;;
16822;SDS011;8528;49.976;11.858;2023-11-19T09:08:03;3.13;;;2.20;;
16822;SDS011;8528;49.976;11.858;2023-11-19T09:10:30;2.70;;;1.87;;
16822;SDS011;8528;49.976;11.858;2023-11-19T09:12:57;2.63;;;2.07;;
16822;SDS011;8528;49.976;11.858;2023-11-19T09:15:24;2.33;;;1.90;;
16822;SDS011;8528;49.976;11.858;2023-11-19T09:17:51;2.07;;;1.87;;
16822;SDS011;8528;49.976;11.858;2023-11-19T09:20:18;2.30;;;1.70;;
16822;SDS011;8528;49.976;11.858;2023-11-19T09:22:45;4.13;;;2.10;;
16822;SDS011;8528;49.976;11.858;2023-11-19T09:25:12;2.90;;;1.77;;
16822;SDS011;8528;49.976;11.858;2023-11-19T09:27:43;2.33;;;1.47;;
16822;SDS011;8528;49.976;11.858;2023-11-19T09:30:10;1.57;;;1.30;;
16822;SDS011;8528;49.976;11.858;2023-11-19T09:32:39;1.93;;;1.40;;
16822;SDS011;8528;49.976;11.858;2023-11-19T09:35:07;2.77;;;2.00;;
16822;SDS011;8528;49.976;11.858;2023-11-19T09:37:34;5.20;;;1.80;;
16822;SDS011;8528;49.976;11.858;2023-11-19T09:40:01;2.30;;;2.07;;
16822;SDS011;8528;49.976;11.858;2023-11-19T09:42:28;3.13;;;2.00;;
16822;SDS011;8528;49.976;11.858;2023-11-19T09:44:57;3.40;;;2.23;;
16822;SDS011;8528;49.976;11.858;2023-11-19T09:47:25;4.30;;;2.90;;
16822;SDS011;8528;49.976;11.858;2023-11-19T09:49:54;2.43;;;2.17;;
16822;SDS011;8528;49.976;11.858;2023-11-19T09:52:24;2.70;;;2.50;;
16822;SDS011;8528;49.976;11.858;2023-11-19T09:54:51;4.10;;;2.00;;
16822;SDS011;8528;49.976;11.858;2023-11-19T09:57:18;2.80;;;1.70;;
16822;SDS011;8528;49.976;11.858;2023-11-19T09:59:45;4.50;;;2.47;;
16822;SDS011;8528;49.976;11.858;2023-11-19T10:02:13;7.37;;;5.10;;
16822;SDS011;8528;49.976;11.858;2023-11-19T10:04:42;2.83;;;2.20;;
16822;SDS011;8528;49.976;11.858;2023-11-19T10:07:10;2.37;;;1.87;;
16822;SDS011;8528;49.976;11.858;2023-11-19T10:09:37;3.57;;;1.80;;
16822;SDS011;8528;49.976;11.858;2023-11-19T10:12:04;3.20;;;1.90;;
16822;SDS011;8528;49.976;11.858;2023-11-19T10:14:31;1.80;;;1.70;;
16822;SDS011;8528;49.976;11.858;2023-11-19T10:17:02;1.73;;;1.60;;
16822;SDS011;8528;49.976;11.858;2023-11-19T10:19:32;3.67;;;2.93;;
16822;SDS011;8528;49.976;11.858;2023-11-19T10:22:03;2.47;;;2.00;;
16822;SDS011;8528;49.976;11.858;2023-11-19T10:24:31;2.10;;;1.90;;
16822;SDS011;8528;49.976;11.858;2023-11-19T10:27:01;3.97;;;1.70;;
16822;SDS011;8528;49.976;11.858;2023-11-19T10:29:29;1.80;;;1.33;;
16822;SDS011;8528;49.976;11.858;2023-11-19T10:31:57;4.70;;;2.13;;
16822;SDS011;8528;49.976;11.858;2023-11-19T10:34:45;3.63;;;2.23;;
16822;SDS011;8528;49.976;11.858;2023-11-19T10:37:27;3.50;;;1.73;;
16822;SDS011;8528;49.976;11.858;2023-11-19T10:39:59;2.10;;;1.57;;
16822;SDS011;8528;49.976;11.858;2023-11-19T10:42:26;2.67;;;1.40;;
16822;SDS011;8528;49.976;11.858;2023-11-19T10:44:52;3.40;;;1.80;;
16822;SDS011;8528;49.976;11.858;2023-11-19T10:47:19;4.10;;;1.70;;
16822;SDS011;8528;49.976;11.858;2023-11-19T10:50:04;3.60;;;1.90;;
16822;SDS011;8528;49.976;11.858;2023-11-19T10:52:32;4.63;;;1.60;;
16822;SDS011;8528;49.976;11.858;2023-11-19T10:55:00;4.83;;;1.63;;
16822;SDS011;8528;49.976;11.858;2023-11-19T10:57:29;3.33;;;2.00;;
16822;SDS011;8528;49.976;11.858;2023-11-19T11:00:00;3.80;;;2.03;;
16822;SDS011;8528;49.976;11.858;2023-11-19T11:02:29;14.03;;;9.73;;
16822;SDS011;8528;49.976;11.858;2023-11-19T11:05:01;9.93;;;8.87;;
16822;SDS011;8528;49.976;11.858;2023-11-19T11:07:29;11.13;;;8.57;;
16822;SDS011;8528;49.976;11.858;2023-11-19T11:10:07;10.90;;;8.17;;
16822;SDS011;8528;49.976;11.858;2023-11-19T11:12:36;16.37;;;14.47;;
16822;SDS011;8528;49.976;11.858;2023-11-19T11:15:04;13.60;;;12.20;;
16822;SDS011;8528;49.976;11.858;2023-11-19T11:17:33;17.27;;;15.60;;
16822;SDS011;8528;49.976;11.858;2023-11-19T11:20:00;14.60;;;12.73;;
16822;SDS011;8528;49.976;11.858;2023-11-19T11:22:28;13.93;;;12.73;;
16822;SDS011;8528;49.976;11.858;2023-11-19T11:25:19;5.40;;;4.90;;
16822;SDS011;8528;49.976;11.858;2023-11-19T11:30:57;5.40;;;2.40;;
16822;SDS011;8528;49.976;11.858;2023-11-19T11:33:55;2.50;;;2.20;;
16822;SDS011;8528;49.976;11.858;2023-11-19T11:39:26;3.53;;;1.80;;
16822;SDS011;8528;49.976;11.858;2023-11-19T11:48:04;6.97;;;6.37;;
16822;SDS011;8528;49.976;11.858;2023-11-19T11:50:52;11.03;;;10.10;;
16822;SDS011;8528;49.976;11.858;2023-11-19T11:53:21;11.87;;;10.80;;
16822;SDS011;8528;49.976;11.858;2023-11-19T11:58:21;13.67;;;12.27;;
16822;SDS011;8528;49.976;11.858;2023-11-19T12:00:51;10.70;;;6.90;;
16822;SDS011;8528;49.976;11.858;2023-11-19T12:03:21;8.00;;;7.20;;
16822;SDS011;8528;49.976;11.858;2023-11-19T12:05:49;2.47;;;2.27;;
16822;SDS011;8528;49.976;11.858;2023-11-19T12:08:19;3.53;;;2.77;;
16822;SDS011;8528;49.976;11.858;2023-11-19T12:10:52;3.33;;;2.43;;
16822;SDS011;8528;49.976;11.858;2023-11-19T12:13:25;3.93;;;3.50;;
16822;SDS011;8528;49.976;11.858;2023-11-19T12:16:09;2.73;;;2.43;;
16822;SDS011;8528;49.976;11.858;2023-11-19T12:18:38;6.10;;;5.03;;
16822;SDS011;8528;49.976;11.858;2023-11-19T12:21:06;3.47;;;2.10;;
16822;SDS011;8528;49.976;11.858;2023-11-19T12:23:43;4.90;;;4.37;;
16822;SDS011;8528;49.976;11.858;2023-11-19T12:29:01;6.47;;;5.87;;
16822;SDS011;8528;49.976;11.858;2023-11-19T12:31:34;6.87;;;5.50;;
16822;SDS011;8528;49.976;11.858;2023-11-19T12:34:05;7.50;;;5.73;;
16822;SDS011;8528;49.976;11.858;2023-11-19T12:36:32;5.97;;;5.50;;
16822;SDS011;8528;49.976;11.858;2023-11-19T12:39:00;9.70;;;8.83;;
16822;SDS011;8528;49.976;11.858;2023-11-19T12:41:27;9.60;;;8.47;;
16822;SDS011;8528;49.976;11.858;2023-11-19T12:43:54;4.50;;;3.47;;
16822;SDS011;8528;49.976;11.858;2023-11-19T12:46:35;4.70;;;3.70;;
16822;SDS011;8528;49.976;11.858;2023-11-19T12:49:02;6.00;;;5.37;;
16822;SDS011;8528;49.976;11.858;2023-11-19T12:51:32;6.40;;;2.63;;
16822;SDS011;8528;49.976;11.858;2023-11-19T12:53:59;7.63;;;6.47;;
16822;SDS011;8528;49.976;11.858;2023-11-19T12:56:26;4.43;;;2.40;;
16822;SDS011;8528;49.976;11.858;2023-11-19T12:58:53;6.27;;;2.97;;
16822;SDS011;8528;49.976;11.858;2023-11-19T13:01:20;3.27;;;2.43;;
16822;SDS011;8528;49.976;11.858;2023-11-19T13:03:47;5.80;;;2.97;;
16822;SDS011;8528;49.976;11.858;2023-11-19T13:06:18;15.20;;;13.87;;
16822;SDS011;8528;49.976;11.858;2023-11-19T13:08:48;39.47;;;35.87;;
16822;SDS011;8528;49.976;11.858;2023-11-19T13:11:34;8.23;;;6.87;;
16822;SDS011;8528;49.976;11.858;2023-11-19T13:14:03;9.40;;;7.77;;
16822;SDS011;8528;49.976;11.858;2023-11-19T13:16:31;4.57;;;4.17;;
16822;SDS011;8528;49.976;11.858;2023-11-19T13:18:59;6.47;;;5.23;;
16822;SDS011;8528;49.976;11.858;2023-11-19T13:21:27;6.33;;;5.23;;
16822;SDS011;8528;49.976;11.858;2023-11-19T13:23:53;7.30;;;4.80;;
16822;SDS011;8528;49.976;11.858;2023-11-19T13:26:20;4.17;;;2.00;;
16822;SDS011;8528;49.976;11.858;2023-11-19T13:28:47;10.73;;;5.87;;
16822;SDS011;8528;49.976;11.858;2023-11-19T13:31:14;1.93;;;1.77;;
16822;SDS011;8528;49.976;11.858;2023-11-19T13:33:41;7.87;;;3.57;;
16822;SDS011;8528;49.976;11.858;2023-11-19T13:36:08;6.87;;;3.33;;
16822;SDS011;8528;49.976;11.858;2023-11-19T13:38:39;5.00;;;3.40;;
16822;SDS011;8528;49.976;11.858;2023-11-19T13:41:11;3.90;;;2.53;;
16822;SDS011;8528;49.976;11.858;2023-11-19T13:43:39;5.97;;;2.70;;
16822;SDS011;8528;49.976;11.858;2023-11-19T13:46:06;5.80;;;4.27;;
16822;SDS011;8528;49.976;11.858;2023-11-19T13:48:36;7.47;;;3.73;;
16822;SDS011;8528;49.976;11.858;2023-11-19T13:51:03;5.60;;;3.13;;
16822;SDS011;8528;49.976;11.858;2023-11-19T13:53:30;10.27;;;5.30;;
16822;SDS011;8528;49.976;11.858;2023-11-19T13:55:57;7.03;;;5.50;;
16822;SDS011;8528;49.976;11.858;2023-11-19T13:58:24;3.17;;;2.50;;
16822;SDS011;8528;49.976;11.858;2023-11-19T14:00:50;7.07;;;2.80;;
16822;SDS011;8528;49.976;11.858;2023-11-19T14:03:17;6.47;;;2.97;;
16822;SDS011;8528;49.976;11.858;2023-11-19T14:08:41;5.10;;;3.07;;
16822;SDS011;8528;49.976;11.858;2023-11-19T14:11:08;4.50;;;2.60;;
16822;SDS011;8528;49.976;11.858;2023-11-19T14:13:35;7.27;;;4.70;;
16822;SDS011;8528;49.976;11.858;2023-11-19T14:16:01;5.40;;;2.10;;
16822;SDS011;8528;49.976;11.858;2023-11-19T14:18:28;5.00;;;2.20;;
16822;SDS011;8528;49.976;11.858;2023-11-19T14:20:55;5.70;;;3.13;;
16822;SDS011;8528;49.976;11.858;2023-11-19T14:23:22;5.57;;;5.03;;
16822;SDS011;8528;49.976;11.858;2023-11-19T14:25:50;6.57;;;3.83;;
16822;SDS011;8528;49.976;11.858;2023-11-19T14:28:17;9.70;;;7.03;;
16822;SDS011;8528;49.976;11.858;2023-11-19T14:30:44;5.27;;;2.30;;
16822;SDS011;8528;49.976;11.858;2023-11-19T14:33:12;8.53;;;2.73;;
16822;SDS011;8528;49.976;11.858;2023-11-19T14:35:38;4.63;;;2.63;;
16822;SDS011;8528;49.976;11.858;2023-11-19T14:38:05;6.93;;;3.40;;
16822;SDS011;8528;49.976;11.858;2023-11-19T14:40:36;4.77;;;3.00;;
16822;SDS011;8528;49.976;11.858;2023-11-19T14:43:06;4.60;;;2.10;;
16822;SDS011;8528;49.976;11.858;2023-11-19T14:45:33;5.90;;;2.10;;
16822;SDS011;8528;49.976;11.858;2023-11-19T14:48:10;3.53;;;2.07;;
16822;SDS011;8528;49.976;11.858;2023-11-19T14:50:37;4.17;;;2.93;;
16822;SDS011;8528;49.976;11.858;2023-11-19T14:53:03;7.40;;;2.10;;
16822;SDS011;8528;49.976;11.858;2023-11-19T14:55:31;5.70;;;2.80;;
16822;SDS011;8528;49.976;11.858;2023-11-19T14:57:58;4.50;;;2.20;;
16822;SDS011;8528;49.976;11.858;2023-11-19T15:00:35;7.23;;;3.33;;
16822;SDS011;8528;49.976;11.858;2023-11-19T15:03:02;3.60;;;2.67;;
16822;SDS011;8528;49.976;11.858;2023-11-19T15:05:28;4.57;;;3.00;;
16822;SDS011;8528;49.976;11.858;2023-11-19T15:07:55;8.37;;;5.00;;
16822;SDS011;8528;49.976;11.858;2023-11-19T15:10:22;6.87;;;2.63;;
16822;SDS011;8528;49.976;11.858;2023-11-19T15:12:51;4.97;;;2.93;;